Time;durP1;ratioP1;P1;durP2;ratioP2;P2;SDS_P1;SDS_P2;PMS_P1;PMS_P2;Temp;Humidity;BMP_temperature;BMP_pressure;BME280_temperature;BME280_humidity;BME280_pressure;Samples;Min_cycle;Max_cycle;Signal;HPM_P1;HPM_P2
2020/11/23 00:00:07;;;;;;;10.65;6.7;;;;;;;2.14;55.53125;96066.11;;;;
2020/11/23 00:01:08;;;;;;;10.65;6.7;;;;;;;2.14;55.53125;96066.11;;;;
2020/11/23 00:02:09;;;;;;;10.65;6.7;;;;;;;2.14;55.53125;96066.11;;;;
2020/11/23 00:03:09;;;;;;;10.65;6.7;;;;;;;2.14;55.53125;96066.11;;;;
2020/11/23 00:04:10;;;;;;;10.65;6.7;;;;;;;2.14;55.53125;96066.11;;;;
2020/11/23 00:05:10;;;;;;;10.65;6.7;;;;;;;2.14;55.53125;96066.11;;;;
2020/11/23 00:06:11;;;;;;;10.65;6.7;;;;;;;2.14;55.53125;96066.11;;;;
2020/11/23 00:07:11;;;;;;;10.65;6.7;;;;;;;2.14;55.53125;96066.11;;;;
2020/11/23 00:08:12;;;;;;;10.65;6.7;;;;;;;2.14;55.53125;96066.11;;;;
2020/11/23 00:09:12;;;;;;;8.6;5.8;;;;;;;1.91;55.74512;96069.89;;;;
2020/11/23 00:10:13;;;;;;;8.6;5.8;;;;;;;1.91;55.74512;96069.89;;;;
2020/11/23 00:11:14;;;;;;;8.6;5.8;;;;;;;1.91;55.74512;96069.89;;;;
2020/11/23 00:12:15;;;;;;;8.6;5.8;;;;;;;1.91;55.74512;96069.89;;;;
2020/11/23 00:13:16;;;;;;;8.6;5.8;;;;;;;1.91;55.74512;96069.89;;;;
2020/11/23 00:14:16;;;;;;;8.6;5.8;;;;;;;1.91;55.74512;96069.89;;;;
2020/11/23 00:15:17;;;;;;;8.6;5.8;;;;;;;1.91;55.74512;96069.89;;;;
2020/11/23 00:16:17;;;;;;;8.6;5.8;;;;;;;1.91;55.74512;96069.89;;;;
2020/11/23 00:17:18;;;;;;;8.6;5.8;;;;;;;1.91;55.74512;96069.89;;;;
2020/11/23 00:18:18;;;;;;;8.6;5.8;;;;;;;1.91;55.74512;96069.89;;;;
2020/11/23 00:19:19;;;;;;;8.6;5.8;;;;;;;1.91;55.74512;96069.89;;;;
2020/11/23 00:20:19;;;;;;;11;6.599999;;;;;;;1.71;56.47656;96052.12;;;;
2020/11/23 00:21:20;;;;;;;11;6.599999;;;;;;;1.71;56.47656;96052.12;;;;
2020/11/23 00:22:20;;;;;;;11;6.599999;;;;;;;1.71;56.47656;96052.12;;;;
2020/11/23 00:23:21;;;;;;;11;6.599999;;;;;;;1.71;56.47656;96052.12;;;;
2020/11/23 00:24:21;;;;;;;11;6.599999;;;;;;;1.71;56.47656;96052.12;;;;
2020/11/23 00:25:22;;;;;;;11;6.599999;;;;;;;1.71;56.47656;96052.12;;;;
2020/11/23 00:26:22;;;;;;;11;6.599999;;;;;;;1.71;56.47656;96052.12;;;;
2020/11/23 00:27:23;;;;;;;11;6.599999;;;;;;;1.71;56.47656;96052.12;;;;
2020/11/23 00:28:23;;;;;;;11;6.599999;;;;;;;1.71;56.47656;96052.12;;;;
2020/11/23 00:29:24;;;;;;;11;6.599999;;;;;;;1.71;56.47656;96052.12;;;;
2020/11/23 00:30:24;;;;;;;7.349999;6.000001;;;;;;;1.82;56.50098;96032.75;;;;
2020/11/23 00:31:25;;;;;;;7.349999;6.000001;;;;;;;1.82;56.50098;96032.75;;;;
2020/11/23 00:32:26;;;;;;;7.349999;6.000001;;;;;;;1.82;56.50098;96032.75;;;;
2020/11/23 00:33:26;;;;;;;7.349999;6.000001;;;;;;;1.82;56.50098;96032.75;;;;
2020/11/23 00:34:27;;;;;;;7.349999;6.000001;;;;;;;1.82;56.50098;96032.75;;;;
2020/11/23 00:35:27;;;;;;;7.349999;6.000001;;;;;;;1.82;56.50098;96032.75;;;;
2020/11/23 00:36:28;;;;;;;7.349999;6.000001;;;;;;;1.82;56.50098;96032.75;;;;
2020/11/23 00:37:29;;;;;;;7.349999;6.000001;;;;;;;1.82;56.50098;96032.75;;;;
2020/11/23 00:38:30;;;;;;;7.349999;6.000001;;;;;;;1.82;56.50098;96032.75;;;;
2020/11/23 00:39:30;;;;;;;7.349999;6.000001;;;;;;;1.82;56.50098;96032.75;;;;
2020/11/23 00:40:31;;;;;;;7.349999;6.000001;;;;;;;1.82;56.50098;96032.75;;;;
2020/11/23 00:41:31;;;;;;;8.299999;6.250001;;;;;;;2;56.34668;96026.37;;;;
2020/11/23 00:42:32;;;;;;;8.299999;6.250001;;;;;;;2;56.34668;96026.37;;;;
2020/11/23 00:43:32;;;;;;;8.299999;6.250001;;;;;;;2;56.34668;96026.37;;;;
2020/11/23 00:44:33;;;;;;;8.299999;6.250001;;;;;;;2;56.34668;96026.37;;;;
2020/11/23 00:45:33;;;;;;;8.299999;6.250001;;;;;;;2;56.34668;96026.37;;;;
2020/11/23 00:46:34;;;;;;;8.299999;6.250001;;;;;;;2;56.34668;96026.37;;;;
2020/11/23 00:47:34;;;;;;;8.299999;6.250001;;;;;;;2;56.34668;96026.37;;;;
2020/11/23 00:48:36;;;;;;;8.299999;6.250001;;;;;;;2;56.34668;96026.37;;;;
2020/11/23 00:49:36;;;;;;;8.299999;6.250001;;;;;;;2;56.34668;96026.37;;;;
2020/11/23 00:50:37;;;;;;;8.299999;6.250001;;;;;;;2;56.34668;96026.37;;;;
2020/11/23 00:51:37;;;;;;;8.299999;6.250001;;;;;;;2;56.34668;96026.37;;;;
2020/11/23 00:52:38;;;;;;;8.15;5.799999;;;;;;;2.2;56.28809;96043.7;;;;
2020/11/23 00:53:38;;;;;;;8.15;5.799999;;;;;;;2.2;56.28809;96043.7;;;;
2020/11/23 00:54:39;;;;;;;8.15;5.799999;;;;;;;2.2;56.28809;96043.7;;;;
2020/11/23 00:55:39;;;;;;;8.15;5.799999;;;;;;;2.2;56.28809;96043.7;;;;
2020/11/23 00:56:40;;;;;;;8.15;5.799999;;;;;;;2.2;56.28809;96043.7;;;;
2020/11/23 00:57:40;;;;;;;8.15;5.799999;;;;;;;2.2;56.28809;96043.7;;;;
2020/11/23 00:58:41;;;;;;;8.15;5.799999;;;;;;;2.2;56.28809;96043.7;;;;
2020/11/23 00:59:41;;;;;;;8.15;5.799999;;;;;;;2.2;56.28809;96043.7;;;;
2020/11/23 01:00:42;;;;;;;8.15;5.799999;;;;;;;2.2;56.28809;96043.7;;;;
2020/11/23 01:01:42;;;;;;;8.15;5.799999;;;;;;;2.2;56.28809;96043.7;;;;
2020/11/23 01:02:43;;;;;;;8.65;6.15;;;;;;;2.37;56.35254;96043.13;;;;
2020/11/23 01:03:43;;;;;;;8.65;6.15;;;;;;;2.37;56.35254;96043.13;;;;
2020/11/23 01:04:44;;;;;;;8.65;6.15;;;;;;;2.37;56.35254;96043.13;;;;
2020/11/23 01:05:44;;;;;;;8.65;6.15;;;;;;;2.37;56.35254;96043.13;;;;
2020/11/23 01:06:45;;;;;;;8.65;6.15;;;;;;;2.37;56.35254;96043.13;;;;
2020/11/23 01:07:45;;;;;;;8.65;6.15;;;;;;;2.37;56.35254;96043.13;;;;
2020/11/23 01:08:46;;;;;;;8.65;6.15;;;;;;;2.37;56.35254;96043.13;;;;
2020/11/23 01:09:46;;;;;;;8.65;6.15;;;;;;;2.37;56.35254;96043.13;;;;
2020/11/23 01:10:47;;;;;;;8.65;6.15;;;;;;;2.37;56.35254;96043.13;;;;
2020/11/23 01:11:48;;;;;;;8.65;6.15;;;;;;;2.37;56.35254;96043.13;;;;
2020/11/23 01:12:49;;;;;;;8.65;6.15;;;;;;;2.37;56.35254;96043.13;;;;
2020/11/23 01:13:50;;;;;;;8.550001;5.95;;;;;;;2.39;56.4502;96053.13;;;;
2020/11/23 01:14:50;;;;;;;8.550001;5.95;;;;;;;2.39;56.4502;96053.13;;;;
2020/11/23 01:15:51;;;;;;;8.550001;5.95;;;;;;;2.39;56.4502;96053.13;;;;
2020/11/23 01:16:51;;;;;;;8.550001;5.95;;;;;;;2.39;56.4502;96053.13;;;;
2020/11/23 01:17:52;;;;;;;8.550001;5.95;;;;;;;2.39;56.4502;96053.13;;;;
2020/11/23 01:18:52;;;;;;;8.550001;5.95;;;;;;;2.39;56.4502;96053.13;;;;
2020/11/23 01:19:53;;;;;;;8.550001;5.95;;;;;;;2.39;56.4502;96053.13;;;;
2020/11/23 01:20:53;;;;;;;8.550001;5.95;;;;;;;2.39;56.4502;96053.13;;;;
2020/11/23 01:21:54;;;;;;;8.550001;5.95;;;;;;;2.39;56.4502;96053.13;;;;
2020/11/23 01:22:54;;;;;;;8.550001;5.95;;;;;;;2.39;56.4502;96053.13;;;;
2020/11/23 01:23:55;;;;;;;9.799999;5.65;;;;;;;2.29;57.39746;96049.36;;;;
2020/11/23 01:24:55;;;;;;;9.799999;5.65;;;;;;;2.29;57.39746;96049.36;;;;
2020/11/23 01:25:56;;;;;;;9.799999;5.65;;;;;;;2.29;57.39746;96049.36;;;;
2020/11/23 01:26:56;;;;;;;9.799999;5.65;;;;;;;2.29;57.39746;96049.36;;;;
2020/11/23 01:27:57;;;;;;;9.799999;5.65;;;;;;;2.29;57.39746;96049.36;;;;
2020/11/23 01:28:57;;;;;;;9.799999;5.65;;;;;;;2.29;57.39746;96049.36;;;;
2020/11/23 01:29:58;;;;;;;9.799999;5.65;;;;;;;2.29;57.39746;96049.36;;;;
2020/11/23 01:30:58;;;;;;;9.799999;5.65;;;;;;;2.29;57.39746;96049.36;;;;
2020/11/23 01:31:59;;;;;;;9.799999;5.65;;;;;;;2.29;57.39746;96049.36;;;;
2020/11/23 01:32:59;;;;;;;9.799999;5.65;;;;;;;2.29;57.39746;96049.36;;;;
2020/11/23 01:34:00;;;;;;;9.799999;5.65;;;;;;;2.29;57.39746;96049.36;;;;
2020/11/23 01:35:01;;;;;;;7.6;5.35;;;;;;;2.15;57.46289;96046.88;;;;
2020/11/23 01:36:01;;;;;;;7.6;5.35;;;;;;;2.15;57.46289;96046.88;;;;
2020/11/23 01:37:02;;;;;;;7.6;5.35;;;;;;;2.15;57.46289;96046.88;;;;
2020/11/23 01:38:02;;;;;;;7.6;5.35;;;;;;;2.15;57.46289;96046.88;;;;
2020/11/23 01:39:03;;;;;;;7.6;5.35;;;;;;;2.15;57.46289;96046.88;;;;
2020/11/23 01:40:03;;;;;;;7.6;5.35;;;;;;;2.15;57.46289;96046.88;;;;
2020/11/23 01:41:04;;;;;;;7.6;5.35;;;;;;;2.15;57.46289;96046.88;;;;
2020/11/23 01:42:04;;;;;;;7.6;5.35;;;;;;;2.15;57.46289;96046.88;;;;
2020/11/23 01:43:05;;;;;;;7.6;5.35;;;;;;;2.15;57.46289;96046.88;;;;
2020/11/23 01:44:05;;;;;;;7.6;5.35;;;;;;;2.15;57.46289;96046.88;;;;
2020/11/23 01:45:06;;;;;;;11.6;5.649999;;;;;;;2.03;57.66797;96049.53;;;;
2020/11/23 01:46:06;;;;;;;11.6;5.649999;;;;;;;2.03;57.66797;96049.53;;;;
2020/11/23 01:47:07;;;;;;;11.6;5.649999;;;;;;;2.03;57.66797;96049.53;;;;
2020/11/23 01:48:08;;;;;;;11.6;5.649999;;;;;;;2.03;57.66797;96049.53;;;;
2020/11/23 01:49:11;;;;;;;11.6;5.649999;;;;;;;2.03;57.66797;96049.53;;;;
2020/11/23 01:50:12;;;;;;;11.6;5.649999;;;;;;;2.03;57.66797;96049.53;;;;
2020/11/23 01:51:12;;;;;;;11.6;5.649999;;;;;;;2.03;57.66797;96049.53;;;;
2020/11/23 01:52:13;;;;;;;11.6;5.649999;;;;;;;2.03;57.66797;96049.53;;;;
2020/11/23 01:53:13;;;;;;;11.6;5.649999;;;;;;;2.03;57.66797;96049.53;;;;
2020/11/23 01:54:14;;;;;;;11.6;5.649999;;;;;;;2.03;57.66797;96049.53;;;;
2020/11/23 01:55:14;;;;;;;11.6;5.649999;;;;;;;2.03;57.66797;96049.53;;;;
2020/11/23 01:56:15;;;;;;;8.950001;5.45;;;;;;;2.01;57.94043;96047.96;;;;
2020/11/23 01:57:15;;;;;;;8.950001;5.45;;;;;;;2.01;57.94043;96047.96;;;;
2020/11/23 01:58:16;;;;;;;8.950001;5.45;;;;;;;2.01;57.94043;96047.96;;;;
2020/11/23 01:59:17;;;;;;;8.950001;5.45;;;;;;;2.01;57.94043;96047.96;;;;
2020/11/23 02:00:18;;;;;;;8.950001;5.45;;;;;;;2.01;57.94043;96047.96;;;;
2020/11/23 02:01:19;;;;;;;8.950001;5.45;;;;;;;2.01;57.94043;96047.96;;;;
2020/11/23 02:02:19;;;;;;;8.950001;5.45;;;;;;;2.01;57.94043;96047.96;;;;
2020/11/23 02:03:20;;;;;;;8.950001;5.45;;;;;;;2.01;57.94043;96047.96;;;;
2020/11/23 02:04:20;;;;;;;8.950001;5.45;;;;;;;2.01;57.94043;96047.96;;;;
2020/11/23 02:05:22;;;;;;;8.950001;5.45;;;;;;;2.01;57.94043;96047.96;;;;
2020/11/23 02:06:23;;;;;;;8.950001;5.45;;;;;;;2.01;57.94043;96047.96;;;;
2020/11/23 02:07:23;;;;;;;9.6;5.25;;;;;;;2.07;58.02051;96056.17;;;;
2020/11/23 02:08:24;;;;;;;9.6;5.25;;;;;;;2.07;58.02051;96056.17;;;;
2020/11/23 02:09:24;;;;;;;9.6;5.25;;;;;;;2.07;58.02051;96056.17;;;;
2020/11/23 02:10:25;;;;;;;9.6;5.25;;;;;;;2.07;58.02051;96056.17;;;;
2020/11/23 02:11:25;;;;;;;9.6;5.25;;;;;;;2.07;58.02051;96056.17;;;;
2020/11/23 02:12:26;;;;;;;9.6;5.25;;;;;;;2.07;58.02051;96056.17;;;;
2020/11/23 02:13:26;;;;;;;9.6;5.25;;;;;;;2.07;58.02051;96056.17;;;;
2020/11/23 02:14:27;;;;;;;9.6;5.25;;;;;;;2.07;58.02051;96056.17;;;;
2020/11/23 02:15:27;;;;;;;9.6;5.25;;;;;;;2.07;58.02051;96056.17;;;;
2020/11/23 02:16:28;;;;;;;9.6;5.25;;;;;;;2.07;58.02051;96056.17;;;;
2020/11/23 02:17:29;;;;;;;6.95;5.1;;;;;;;2.16;58.09668;96055.18;;;;
2020/11/23 02:18:29;;;;;;;6.95;5.1;;;;;;;2.16;58.09668;96055.18;;;;
2020/11/23 02:19:30;;;;;;;6.95;5.1;;;;;;;2.16;58.09668;96055.18;;;;
2020/11/23 02:20:30;;;;;;;6.95;5.1;;;;;;;2.16;58.09668;96055.18;;;;
2020/11/23 02:21:31;;;;;;;6.95;5.1;;;;;;;2.16;58.09668;96055.18;;;;
2020/11/23 02:22:31;;;;;;;6.95;5.1;;;;;;;2.16;58.09668;96055.18;;;;
2020/11/23 02:23:32;;;;;;;6.95;5.1;;;;;;;2.16;58.09668;96055.18;;;;
2020/11/23 02:24:32;;;;;;;6.95;5.1;;;;;;;2.16;58.09668;96055.18;;;;
2020/11/23 02:25:33;;;;;;;6.95;5.1;;;;;;;2.16;58.09668;96055.18;;;;
2020/11/23 02:26:33;;;;;;;6.95;5.1;;;;;;;2.16;58.09668;96055.18;;;;
2020/11/23 02:27:34;;;;;;;6.95;5.1;;;;;;;2.16;58.09668;96055.18;;;;
2020/11/23 02:28:36;;;;;;;9.100001;6.2;;;;;;;2.32;58.08691;96062.37;;;;
2020/11/23 02:29:36;;;;;;;9.100001;6.2;;;;;;;2.32;58.08691;96062.37;;;;
2020/11/23 02:30:37;;;;;;;9.100001;6.2;;;;;;;2.32;58.08691;96062.37;;;;
2020/11/23 02:31:38;;;;;;;9.100001;6.2;;;;;;;2.32;58.08691;96062.37;;;;
2020/11/23 02:32:38;;;;;;;9.100001;6.2;;;;;;;2.32;58.08691;96062.37;;;;
2020/11/23 02:33:39;;;;;;;9.100001;6.2;;;;;;;2.32;58.08691;96062.37;;;;
2020/11/23 02:34:39;;;;;;;9.100001;6.2;;;;;;;2.32;58.08691;96062.37;;;;
2020/11/23 02:35:40;;;;;;;9.100001;6.2;;;;;;;2.32;58.08691;96062.37;;;;
2020/11/23 02:36:40;;;;;;;9.100001;6.2;;;;;;;2.32;58.08691;96062.37;;;;
2020/11/23 02:37:41;;;;;;;9.100001;6.2;;;;;;;2.32;58.08691;96062.37;;;;
2020/11/23 02:38:42;;;;;;;7.8;5.35;;;;;;;2.34;58.17383;96085.16;;;;
2020/11/23 02:39:42;;;;;;;7.8;5.35;;;;;;;2.34;58.17383;96085.16;;;;
2020/11/23 02:40:43;;;;;;;7.8;5.35;;;;;;;2.34;58.17383;96085.16;;;;
2020/11/23 02:41:43;;;;;;;7.8;5.35;;;;;;;2.34;58.17383;96085.16;;;;
2020/11/23 02:42:44;;;;;;;7.8;5.35;;;;;;;2.34;58.17383;96085.16;;;;
2020/11/23 02:43:44;;;;;;;7.8;5.35;;;;;;;2.34;58.17383;96085.16;;;;
2020/11/23 02:44:45;;;;;;;7.8;5.35;;;;;;;2.34;58.17383;96085.16;;;;
2020/11/23 02:45:45;;;;;;;7.8;5.35;;;;;;;2.34;58.17383;96085.16;;;;
2020/11/23 02:46:46;;;;;;;7.8;5.35;;;;;;;2.34;58.17383;96085.16;;;;
2020/11/23 02:47:46;;;;;;;7.8;5.35;;;;;;;2.34;58.17383;96085.16;;;;
2020/11/23 02:48:47;;;;;;;7.8;5.35;;;;;;;2.34;58.17383;96085.16;;;;
2020/11/23 02:49:47;;;;;;;8.350001;6.15;;;;;;;2.25;58.58301;96080.02;;;;
2020/11/23 02:50:48;;;;;;;8.350001;6.15;;;;;;;2.25;58.58301;96080.02;;;;
2020/11/23 02:51:48;;;;;;;8.350001;6.15;;;;;;;2.25;58.58301;96080.02;;;;
2020/11/23 02:52:49;;;;;;;8.350001;6.15;;;;;;;2.25;58.58301;96080.02;;;;
2020/11/23 02:53:49;;;;;;;8.350001;6.15;;;;;;;2.25;58.58301;96080.02;;;;
2020/11/23 02:54:50;;;;;;;8.350001;6.15;;;;;;;2.25;58.58301;96080.02;;;;
2020/11/23 02:55:51;;;;;;;8.350001;6.15;;;;;;;2.25;58.58301;96080.02;;;;
2020/11/23 02:56:51;;;;;;;8.350001;6.15;;;;;;;2.25;58.58301;96080.02;;;;
2020/11/23 02:57:52;;;;;;;8.350001;6.15;;;;;;;2.25;58.58301;96080.02;;;;
2020/11/23 02:58:52;;;;;;;8.350001;6.15;;;;;;;2.25;58.58301;96080.02;;;;
2020/11/23 02:59:52;;;;;;;8.400001;5.849999;;;;;;;2.14;58.86426;96078.09;;;;
2020/11/23 03:00:53;;;;;;;8.400001;5.849999;;;;;;;2.14;58.86426;96078.09;;;;
2020/11/23 03:01:54;;;;;;;8.400001;5.849999;;;;;;;2.14;58.86426;96078.09;;;;
2020/11/23 03:02:54;;;;;;;8.400001;5.849999;;;;;;;2.14;58.86426;96078.09;;;;
2020/11/23 03:03:55;;;;;;;8.400001;5.849999;;;;;;;2.14;58.86426;96078.09;;;;
2020/11/23 03:04:55;;;;;;;8.400001;5.849999;;;;;;;2.14;58.86426;96078.09;;;;
2020/11/23 03:05:56;;;;;;;8.400001;5.849999;;;;;;;2.14;58.86426;96078.09;;;;
2020/11/23 03:06:56;;;;;;;8.400001;5.849999;;;;;;;2.14;58.86426;96078.09;;;;
2020/11/23 03:07:57;;;;;;;8.400001;5.849999;;;;;;;2.14;58.86426;96078.09;;;;
2020/11/23 03:08:57;;;;;;;8.400001;5.849999;;;;;;;2.14;58.86426;96078.09;;;;
2020/11/23 03:09:57;;;;;;;8.400001;5.849999;;;;;;;2.14;58.86426;96078.09;;;;
2020/11/23 03:10:58;;;;;;;8.5;6;;;;;;;2.05;59.19922;96062.16;;;;
2020/11/23 03:11:59;;;;;;;8.5;6;;;;;;;2.05;59.19922;96062.16;;;;
2020/11/23 03:12:59;;;;;;;8.5;6;;;;;;;2.05;59.19922;96062.16;;;;
2020/11/23 03:14:00;;;;;;;8.5;6;;;;;;;2.05;59.19922;96062.16;;;;
2020/11/23 03:15:00;;;;;;;8.5;6;;;;;;;2.05;59.19922;96062.16;;;;
2020/11/23 03:16:01;;;;;;;8.5;6;;;;;;;2.05;59.19922;96062.16;;;;
2020/11/23 03:17:01;;;;;;;8.5;6;;;;;;;2.05;59.19922;96062.16;;;;
2020/11/23 03:18:02;;;;;;;8.5;6;;;;;;;2.05;59.19922;96062.16;;;;
2020/11/23 03:19:02;;;;;;;8.5;6;;;;;;;2.05;59.19922;96062.16;;;;
2020/11/23 03:20:03;;;;;;;8.5;6;;;;;;;2.05;59.19922;96062.16;;;;
2020/11/23 03:21:04;;;;;;;8.5;6;;;;;;;2.05;59.19922;96062.16;;;;
2020/11/23 03:22:04;;;;;;;8.799999;5.55;;;;;;;2.04;59.6084;96057.42;;;;
2020/11/23 03:23:05;;;;;;;8.799999;5.55;;;;;;;2.04;59.6084;96057.42;;;;
2020/11/23 03:24:06;;;;;;;8.799999;5.55;;;;;;;2.04;59.6084;96057.42;;;;
2020/11/23 03:25:06;;;;;;;8.799999;5.55;;;;;;;2.04;59.6084;96057.42;;;;
2020/11/23 03:26:07;;;;;;;8.799999;5.55;;;;;;;2.04;59.6084;96057.42;;;;
2020/11/23 03:27:07;;;;;;;8.799999;5.55;;;;;;;2.04;59.6084;96057.42;;;;
2020/11/23 03:28:08;;;;;;;8.799999;5.55;;;;;;;2.04;59.6084;96057.42;;;;
2020/11/23 03:29:08;;;;;;;8.799999;5.55;;;;;;;2.04;59.6084;96057.42;;;;
2020/11/23 03:30:09;;;;;;;8.799999;5.55;;;;;;;2.04;59.6084;96057.42;;;;
2020/11/23 03:31:09;;;;;;;8.799999;5.55;;;;;;;2.04;59.6084;96057.42;;;;
2020/11/23 03:32:10;;;;;;;8.650002;5.7;;;;;;;2.07;59.72852;96060.17;;;;
2020/11/23 03:33:10;;;;;;;8.650002;5.7;;;;;;;2.07;59.72852;96060.17;;;;
2020/11/23 03:34:11;;;;;;;8.650002;5.7;;;;;;;2.07;59.72852;96060.17;;;;
2020/11/23 03:35:12;;;;;;;8.650002;5.7;;;;;;;2.07;59.72852;96060.17;;;;
2020/11/23 03:36:12;;;;;;;8.650002;5.7;;;;;;;2.07;59.72852;96060.17;;;;
2020/11/23 03:37:13;;;;;;;8.650002;5.7;;;;;;;2.07;59.72852;96060.17;;;;
2020/11/23 03:38:13;;;;;;;8.650002;5.7;;;;;;;2.07;59.72852;96060.17;;;;
2020/11/23 03:39:14;;;;;;;8.650002;5.7;;;;;;;2.07;59.72852;96060.17;;;;
2020/11/23 03:40:15;;;;;;;8.650002;5.7;;;;;;;2.07;59.72852;96060.17;;;;
2020/11/23 03:41:15;;;;;;;8.650002;5.7;;;;;;;2.07;59.72852;96060.17;;;;
2020/11/23 03:42:17;;;;;;;8.650002;5.7;;;;;;;2.07;59.72852;96060.17;;;;
2020/11/23 03:43:17;;;;;;;8.1;5.299999;;;;;;;2.13;59.70605;96070.65;;;;
2020/11/23 03:44:18;;;;;;;8.1;5.299999;;;;;;;2.13;59.70605;96070.65;;;;
2020/11/23 03:45:18;;;;;;;8.1;5.299999;;;;;;;2.13;59.70605;96070.65;;;;
2020/11/23 03:46:19;;;;;;;8.1;5.299999;;;;;;;2.13;59.70605;96070.65;;;;
2020/11/23 03:47:19;;;;;;;8.1;5.299999;;;;;;;2.13;59.70605;96070.65;;;;
2020/11/23 03:48:20;;;;;;;8.1;5.299999;;;;;;;2.13;59.70605;96070.65;;;;
2020/11/23 03:49:20;;;;;;;8.1;5.299999;;;;;;;2.13;59.70605;96070.65;;;;
2020/11/23 03:50:21;;;;;;;8.1;5.299999;;;;;;;2.13;59.70605;96070.65;;;;
2020/11/23 03:51:21;;;;;;;8.1;5.299999;;;;;;;2.13;59.70605;96070.65;;;;
2020/11/23 03:52:22;;;;;;;8.1;5.299999;;;;;;;2.13;59.70605;96070.65;;;;
2020/11/23 03:53:22;;;;;;;7.500001;5.5;;;;;;;2.1;59.80566;96090.06;;;;
2020/11/23 03:54:23;;;;;;;7.500001;5.5;;;;;;;2.1;59.80566;96090.06;;;;
2020/11/23 03:55:23;;;;;;;7.500001;5.5;;;;;;;2.1;59.80566;96090.06;;;;
2020/11/23 03:56:24;;;;;;;7.500001;5.5;;;;;;;2.1;59.80566;96090.06;;;;
2020/11/23 03:57:24;;;;;;;7.500001;5.5;;;;;;;2.1;59.80566;96090.06;;;;
2020/11/23 03:58:25;;;;;;;7.500001;5.5;;;;;;;2.1;59.80566;96090.06;;;;
2020/11/23 03:59:25;;;;;;;7.500001;5.5;;;;;;;2.1;59.80566;96090.06;;;;
2020/11/23 04:00:26;;;;;;;7.500001;5.5;;;;;;;2.1;59.80566;96090.06;;;;
2020/11/23 04:01:26;;;;;;;7.500001;5.5;;;;;;;2.1;59.80566;96090.06;;;;
2020/11/23 04:02:27;;;;;;;7.500001;5.5;;;;;;;2.1;59.80566;96090.06;;;;
2020/11/23 04:03:27;;;;;;;7.500001;5.5;;;;;;;2.1;59.80566;96090.06;;;;
2020/11/23 04:04:28;;;;;;;8.5;5.600001;;;;;;;2.22;59.95996;96110.96;;;;
2020/11/23 04:05:28;;;;;;;8.5;5.600001;;;;;;;2.22;59.95996;96110.96;;;;
2020/11/23 04:06:29;;;;;;;8.5;5.600001;;;;;;;2.22;59.95996;96110.96;;;;
2020/11/23 04:07:30;;;;;;;8.5;5.600001;;;;;;;2.22;59.95996;96110.96;;;;
2020/11/23 04:08:30;;;;;;;8.5;5.600001;;;;;;;2.22;59.95996;96110.96;;;;
2020/11/23 04:09:31;;;;;;;8.5;5.600001;;;;;;;2.22;59.95996;96110.96;;;;
2020/11/23 04:10:31;;;;;;;8.5;5.600001;;;;;;;2.22;59.95996;96110.96;;;;
2020/11/23 04:11:32;;;;;;;8.5;5.600001;;;;;;;2.22;59.95996;96110.96;;;;
2020/11/23 04:12:32;;;;;;;8.5;5.600001;;;;;;;2.22;59.95996;96110.96;;;;
2020/11/23 04:13:33;;;;;;;8.5;5.600001;;;;;;;2.22;59.95996;96110.96;;;;
2020/11/23 04:14:33;;;;;;;7.450001;5.7;;;;;;;2.33;60.13379;96095.08;;;;
2020/11/23 04:15:34;;;;;;;7.450001;5.7;;;;;;;2.33;60.13379;96095.08;;;;
2020/11/23 04:16:34;;;;;;;7.450001;5.7;;;;;;;2.33;60.13379;96095.08;;;;
2020/11/23 04:17:35;;;;;;;7.450001;5.7;;;;;;;2.33;60.13379;96095.08;;;;
2020/11/23 04:18:35;;;;;;;7.450001;5.7;;;;;;;2.33;60.13379;96095.08;;;;
2020/11/23 04:19:37;;;;;;;7.450001;5.7;;;;;;;2.33;60.13379;96095.08;;;;
2020/11/23 04:20:37;;;;;;;7.450001;5.7;;;;;;;2.33;60.13379;96095.08;;;;
2020/11/23 04:21:38;;;;;;;7.450001;5.7;;;;;;;2.33;60.13379;96095.08;;;;
2020/11/23 04:22:38;;;;;;;7.450001;5.7;;;;;;;2.33;60.13379;96095.08;;;;
2020/11/23 04:23:39;;;;;;;7.450001;5.7;;;;;;;2.33;60.13379;96095.08;;;;
2020/11/23 04:24:39;;;;;;;7.450001;5.7;;;;;;;2.33;60.13379;96095.08;;;;
2020/11/23 04:25:40;;;;;;;8.549999;5.6;;;;;;;2.47;60.2168;96109.06;;;;
2020/11/23 04:26:40;;;;;;;8.549999;5.6;;;;;;;2.47;60.2168;96109.06;;;;
2020/11/23 04:27:41;;;;;;;8.549999;5.6;;;;;;;2.47;60.2168;96109.06;;;;
2020/11/23 04:28:41;;;;;;;8.549999;5.6;;;;;;;2.47;60.2168;96109.06;;;;
2020/11/23 04:29:42;;;;;;;8.549999;5.6;;;;;;;2.47;60.2168;96109.06;;;;
2020/11/23 04:30:42;;;;;;;8.549999;5.6;;;;;;;2.47;60.2168;96109.06;;;;
2020/11/23 04:31:43;;;;;;;8.549999;5.6;;;;;;;2.47;60.2168;96109.06;;;;
2020/11/23 04:32:43;;;;;;;8.549999;5.6;;;;;;;2.47;60.2168;96109.06;;;;
2020/11/23 04:33:44;;;;;;;8.549999;5.6;;;;;;;2.47;60.2168;96109.06;;;;
2020/11/23 04:34:44;;;;;;;8.549999;5.6;;;;;;;2.47;60.2168;96109.06;;;;
2020/11/23 04:35:45;;;;;;;8.549999;5.6;;;;;;;2.47;60.2168;96109.06;;;;
2020/11/23 04:36:45;;;;;;;8.550001;5.500001;;;;;;;2.52;60.20313;96128.58;;;;
2020/11/23 04:37:46;;;;;;;8.550001;5.500001;;;;;;;2.52;60.20313;96128.58;;;;
2020/11/23 04:38:46;;;;;;;8.550001;5.500001;;;;;;;2.52;60.20313;96128.58;;;;
2020/11/23 04:39:47;;;;;;;8.550001;5.500001;;;;;;;2.52;60.20313;96128.58;;;;
2020/11/23 04:40:47;;;;;;;8.550001;5.500001;;;;;;;2.52;60.20313;96128.58;;;;
2020/11/23 04:41:48;;;;;;;8.550001;5.500001;;;;;;;2.52;60.20313;96128.58;;;;
2020/11/23 04:42:48;;;;;;;8.550001;5.500001;;;;;;;2.52;60.20313;96128.58;;;;
2020/11/23 04:43:50;;;;;;;8.550001;5.500001;;;;;;;2.52;60.20313;96128.58;;;;
2020/11/23 04:44:51;;;;;;;8.550001;5.500001;;;;;;;2.52;60.20313;96128.58;;;;
2020/11/23 04:45:52;;;;;;;8.550001;5.500001;;;;;;;2.52;60.20313;96128.58;;;;
2020/11/23 04:46:53;;;;;;;7.900001;5.85;;;;;;;2.58;60.37891;96140.31;;;;
2020/11/23 04:47:54;;;;;;;7.900001;5.85;;;;;;;2.58;60.37891;96140.31;;;;
2020/11/23 04:48:55;;;;;;;7.900001;5.85;;;;;;;2.58;60.37891;96140.31;;;;
2020/11/23 04:49:56;;;;;;;7.900001;5.85;;;;;;;2.58;60.37891;96140.31;;;;
2020/11/23 04:50:57;;;;;;;7.900001;5.85;;;;;;;2.58;60.37891;96140.31;;;;
2020/11/23 04:51:58;;;;;;;7.900001;5.85;;;;;;;2.58;60.37891;96140.31;;;;
2020/11/23 04:52:58;;;;;;;7.900001;5.85;;;;;;;2.58;60.37891;96140.31;;;;
2020/11/23 04:54:02;;;;;;;7.900001;5.85;;;;;;;2.58;60.37891;96140.31;;;;
2020/11/23 04:55:04;;;;;;;7.900001;5.85;;;;;;;2.58;60.37891;96140.31;;;;
2020/11/23 04:56:05;;;;;;;7.900001;5.85;;;;;;;2.58;60.37891;96140.31;;;;
2020/11/23 04:57:06;;;;;;;7.900001;5.85;;;;;;;2.58;60.37891;96140.31;;;;
2020/11/23 04:58:11;;;;;;;7.849999;5.799999;;;;;;;2.76;60.73145;96129.89;;;;
2020/11/23 04:59:11;;;;;;;7.849999;5.799999;;;;;;;2.76;60.73145;96129.89;;;;
2020/11/23 05:00:14;;;;;;;7.849999;5.799999;;;;;;;2.76;60.73145;96129.89;;;;
2020/11/23 05:01:15;;;;;;;7.849999;5.799999;;;;;;;2.76;60.73145;96129.89;;;;
2020/11/23 05:02:15;;;;;;;7.849999;5.799999;;;;;;;2.76;60.73145;96129.89;;;;
2020/11/23 05:03:16;;;;;;;7.849999;5.799999;;;;;;;2.76;60.73145;96129.89;;;;
2020/11/23 05:04:16;;;;;;;7.849999;5.799999;;;;;;;2.76;60.73145;96129.89;;;;
2020/11/23 05:05:19;;;;;;;7.849999;5.799999;;;;;;;2.76;60.73145;96129.89;;;;
2020/11/23 05:06:19;;;;;;;7.849999;5.799999;;;;;;;2.76;60.73145;96129.89;;;;
2020/11/23 05:07:33;;;;;;;7.849999;5.799999;;;;;;;2.76;60.73145;96129.89;;;;
2020/11/23 05:08:33;;;;;;;8.399998;6.15;;;;;;;2.97;60.58301;96153.29;;;;
2020/11/23 05:09:34;;;;;;;8.399998;6.15;;;;;;;2.97;60.58301;96153.29;;;;
2020/11/23 05:10:36;;;;;;;8.399998;6.15;;;;;;;2.97;60.58301;96153.29;;;;
2020/11/23 05:11:37;;;;;;;8.399998;6.15;;;;;;;2.97;60.58301;96153.29;;;;
2020/11/23 05:12:38;;;;;;;8.399998;6.15;;;;;;;2.97;60.58301;96153.29;;;;
2020/11/23 05:13:39;;;;;;;8.399998;6.15;;;;;;;2.97;60.58301;96153.29;;;;
2020/11/23 05:14:39;;;;;;;8.399998;6.15;;;;;;;2.97;60.58301;96153.29;;;;
2020/11/23 05:15:43;;;;;;;8.399998;6.15;;;;;;;2.97;60.58301;96153.29;;;;
2020/11/23 05:16:44;;;;;;;8.399998;6.15;;;;;;;2.97;60.58301;96153.29;;;;
2020/11/23 05:17:44;;;;;;;8.399998;6.15;;;;;;;2.97;60.58301;96153.29;;;;
2020/11/23 05:18:45;;;;;;;10.45;6.500001;;;;;;;3.07;60.51367;96158.39;;;;
2020/11/23 05:19:45;;;;;;;10.45;6.500001;;;;;;;3.07;60.51367;96158.39;;;;
2020/11/23 05:20:46;;;;;;;10.45;6.500001;;;;;;;3.07;60.51367;96158.39;;;;
2020/11/23 05:21:47;;;;;;;10.45;6.500001;;;;;;;3.07;60.51367;96158.39;;;;
2020/11/23 05:22:47;;;;;;;10.45;6.500001;;;;;;;3.07;60.51367;96158.39;;;;
2020/11/23 05:23:48;;;;;;;10.45;6.500001;;;;;;;3.07;60.51367;96158.39;;;;
2020/11/23 05:24:49;;;;;;;10.45;6.500001;;;;;;;3.07;60.51367;96158.39;;;;
2020/11/23 05:25:49;;;;;;;10.45;6.500001;;;;;;;3.07;60.51367;96158.39;;;;
2020/11/23 05:26:50;;;;;;;10.45;6.500001;;;;;;;3.07;60.51367;96158.39;;;;
2020/11/23 05:27:52;;;;;;;10.45;6.500001;;;;;;;3.07;60.51367;96158.39;;;;
2020/11/23 05:28:53;;;;;;;10.45;6.500001;;;;;;;3.07;60.51367;96158.39;;;;
2020/11/23 05:29:55;;;;;;;9.150001;6.75;;;;;;;3.12;60.8457;96163.2;;;;
2020/11/23 05:30:56;;;;;;;9.150001;6.75;;;;;;;3.12;60.8457;96163.2;;;;
2020/11/23 05:31:56;;;;;;;9.150001;6.75;;;;;;;3.12;60.8457;96163.2;;;;
2020/11/23 05:32:57;;;;;;;9.150001;6.75;;;;;;;3.12;60.8457;96163.2;;;;
2020/11/23 05:33:58;;;;;;;9.150001;6.75;;;;;;;3.12;60.8457;96163.2;;;;